sensor_id;sensor_type;location;lat;lon;timestamp;temperature;humidity
8736;DHT22;4404;49.308;12.178;2022-09-30T00:03:56;10.40;99.90
8736;DHT22;4404;49.308;12.178;2022-09-30T00:09:58;10.50;99.90
8736;DHT22;4404;49.308;12.178;2022-09-30T00:16:02;10.50;99.90
8736;DHT22;4404;49.308;12.178;2022-09-30T00:22:05;10.40;99.90
8736;DHT22;4404;49.308;12.178;2022-09-30T00:28:07;10.40;99.90
8736;DHT22;4404;49.308;12.178;2022-09-30T00:34:11;10.40;99.90
8736;DHT22;4404;49.308;12.178;2022-09-30T00:40:13;10.40;99.90
8736;DHT22;4404;49.308;12.178;2022-09-30T00:46:19;10.40;99.90
8736;DHT22;4404;49.308;12.178;2022-09-30T00:52:26;10.30;99.90
8736;DHT22;4404;49.308;12.178;2022-09-30T00:58:32;10.30;99.90
8736;DHT22;4404;49.308;12.178;2022-09-30T01:04:38;10.30;99.90
8736;DHT22;4404;49.308;12.178;2022-09-30T01:10:42;10.30;99.90
8736;DHT22;4404;49.308;12.178;2022-09-30T01:16:54;10.40;99.90
8736;DHT22;4404;49.308;12.178;2022-09-30T01:44:49;10.30;99.90
8736;DHT22;4404;49.308;12.178;2022-09-30T02:13:38;11.00;99.90
8736;DHT22;4404;49.308;12.178;2022-09-30T02:20:26;10.20;99.90
8736;DHT22;4404;49.308;12.178;2022-09-30T02:26:49;10.30;99.90
8736;DHT22;4404;49.308;12.178;2022-09-30T02:32:56;10.20;99.90
8736;DHT22;4404;49.308;12.178;2022-09-30T02:39:04;10.20;99.90
8736;DHT22;4404;49.308;12.178;2022-09-30T02:45:12;10.20;99.90
8736;DHT22;4404;49.308;12.178;2022-09-30T02:51:20;10.20;99.90
8736;DHT22;4404;49.308;12.178;2022-09-30T02:57:32;10.20;99.90
8736;DHT22;4404;49.308;12.178;2022-09-30T03:03:40;10.20;99.90
8736;DHT22;4404;49.308;12.178;2022-09-30T03:09:44;10.10;99.90
8736;DHT22;4404;49.308;12.178;2022-09-30T03:15:55;10.10;99.90
8736;DHT22;4404;49.308;12.178;2022-09-30T03:22:18;10.10;99.90
8736;DHT22;4404;49.308;12.178;2022-09-30T03:28:32;10.00;99.90
8736;DHT22;4404;49.308;12.178;2022-09-30T03:34:48;9.90;99.90
8736;DHT22;4404;49.308;12.178;2022-09-30T03:41:05;9.80;99.90
8736;DHT22;4404;49.308;12.178;2022-09-30T03:47:13;9.80;99.90
8736;DHT22;4404;49.308;12.178;2022-09-30T03:53:16;9.60;99.90
8736;DHT22;4404;49.308;12.178;2022-09-30T03:59:23;9.50;99.90
8736;DHT22;4404;49.308;12.178;2022-09-30T04:05:28;9.40;99.90
8736;DHT22;4404;49.308;12.178;2022-09-30T04:11:30;9.40;99.90
8736;DHT22;4404;49.308;12.178;2022-09-30T04:17:33;9.40;99.90
8736;DHT22;4404;49.308;12.178;2022-09-30T04:23:36;9.40;99.90
8736;DHT22;4404;49.308;12.178;2022-09-30T04:29:38;9.20;99.90
8736;DHT22;4404;49.308;12.178;2022-09-30T04:35:42;9.20;99.90
8736;DHT22;4404;49.308;12.178;2022-09-30T04:41:44;9.20;99.90
8736;DHT22;4404;49.308;12.178;2022-09-30T04:47:46;9.20;99.90
8736;DHT22;4404;49.308;12.178;2022-09-30T04:53:50;9.30;99.90
8736;DHT22;4404;49.308;12.178;2022-09-30T04:59:52;9.30;99.90
8736;DHT22;4404;49.308;12.178;2022-09-30T05:05:54;9.20;99.90
8736;DHT22;4404;49.308;12.178;2022-09-30T05:11:58;9.20;99.90
8736;DHT22;4404;49.308;12.178;2022-09-30T05:18:01;9.10;99.90
8736;DHT22;4404;49.308;12.178;2022-09-30T05:24:05;9.10;99.90
8736;DHT22;4404;49.308;12.178;2022-09-30T05:30:10;9.30;99.90
8736;DHT22;4404;49.308;12.178;2022-09-30T05:36:13;9.50;99.90
8736;DHT22;4404;49.308;12.178;2022-09-30T05:42:16;9.60;99.90
8736;DHT22;4404;49.308;12.178;2022-09-30T05:48:20;9.60;99.90
8736;DHT22;4404;49.308;12.178;2022-09-30T05:54:22;9.50;99.90
8736;DHT22;4404;49.308;12.178;2022-09-30T06:00:25;9.40;99.90
8736;DHT22;4404;49.308;12.178;2022-09-30T06:06:28;9.40;99.90
8736;DHT22;4404;49.308;12.178;2022-09-30T06:12:31;9.50;99.90
8736;DHT22;4404;49.308;12.178;2022-09-30T06:18:34;9.50;99.90
8736;DHT22;4404;49.308;12.178;2022-09-30T06:24:38;9.60;99.90
8736;DHT22;4404;49.308;12.178;2022-09-30T06:30:42;9.70;99.90
8736;DHT22;4404;49.308;12.178;2022-09-30T06:36:45;9.80;99.90
8736;DHT22;4404;49.308;12.178;2022-09-30T06:42:50;9.90;99.90
8736;DHT22;4404;49.308;12.178;2022-09-30T06:48:53;10.00;99.90
8736;DHT22;4404;49.308;12.178;2022-09-30T06:54:55;10.00;99.90
8736;DHT22;4404;49.308;12.178;2022-09-30T07:01:00;10.10;99.90
8736;DHT22;4404;49.308;12.178;2022-09-30T07:07:04;10.10;99.90
8736;DHT22;4404;49.308;12.178;2022-09-30T07:13:06;10.10;99.90
8736;DHT22;4404;49.308;12.178;2022-09-30T07:19:12;10.20;99.90
8736;DHT22;4404;49.308;12.178;2022-09-30T07:25:14;10.00;99.90
8736;DHT22;4404;49.308;12.178;2022-09-30T07:31:19;9.90;99.90
8736;DHT22;4404;49.308;12.178;2022-09-30T07:37:24;10.00;99.90
8736;DHT22;4404;49.308;12.178;2022-09-30T07:43:28;10.10;99.90
8736;DHT22;4404;49.308;12.178;2022-09-30T07:49:35;10.20;99.90
8736;DHT22;4404;49.308;12.178;2022-09-30T07:55:39;10.20;99.90
8736;DHT22;4404;49.308;12.178;2022-09-30T08:01:41;10.30;99.90
8736;DHT22;4404;49.308;12.178;2022-09-30T08:07:44;10.30;99.90
8736;DHT22;4404;49.308;12.178;2022-09-30T08:13:50;10.30;99.90
8736;DHT22;4404;49.308;12.178;2022-09-30T08:19:53;10.30;99.90
8736;DHT22;4404;49.308;12.178;2022-09-30T08:26:00;10.30;99.90
8736;DHT22;4404;49.308;12.178;2022-09-30T08:32:04;10.30;99.90
8736;DHT22;4404;49.308;12.178;2022-09-30T08:38:07;10.30;99.90
8736;DHT22;4404;49.308;12.178;2022-09-30T08:44:21;10.40;99.90
8736;DHT22;4404;49.308;12.178;2022-09-30T08:50:36;10.50;99.90
8736;DHT22;4404;49.308;12.178;2022-09-30T08:56:47;10.60;99.90
8736;DHT22;4404;49.308;12.178;2022-09-30T09:02:52;10.60;99.90
8736;DHT22;4404;49.308;12.178;2022-09-30T09:09:15;10.80;99.90
8736;DHT22;4404;49.308;12.178;2022-09-30T09:15:36;11.20;99.90
8736;DHT22;4404;49.308;12.178;2022-09-30T09:21:50;11.60;99.90
8736;DHT22;4404;49.308;12.178;2022-09-30T09:28:00;11.90;99.90
8736;DHT22;4404;49.308;12.178;2022-09-30T09:34:09;12.20;99.90
8736;DHT22;4404;49.308;12.178;2022-09-30T09:40:17;12.60;99.90
8736;DHT22;4404;49.308;12.178;2022-09-30T09:46:28;12.90;99.90
8736;DHT22;4404;49.308;12.178;2022-09-30T09:52:43;13.30;99.90
8736;DHT22;4404;49.308;12.178;2022-09-30T09:59:06;13.60;99.90
8736;DHT22;4404;49.308;12.178;2022-09-30T10:05:22;13.80;99.90
8736;DHT22;4404;49.308;12.178;2022-09-30T10:11:27;14.10;99.90
8736;DHT22;4404;49.308;12.178;2022-09-30T10:17:32;14.30;99.90
8736;DHT22;4404;49.308;12.178;2022-09-30T10:23:38;14.20;99.90
8736;DHT22;4404;49.308;12.178;2022-09-30T10:29:46;14.20;99.90
8736;DHT22;4404;49.308;12.178;2022-09-30T10:36:05;14.10;99.90
8736;DHT22;4404;49.308;12.178;2022-09-30T10:42:16;13.90;99.90
8736;DHT22;4404;49.308;12.178;2022-09-30T10:48:23;13.90;99.90
8736;DHT22;4404;49.308;12.178;2022-09-30T10:54:48;13.90;99.90
8736;DHT22;4404;49.308;12.178;2022-09-30T11:00:58;13.90;99.90
8736;DHT22;4404;49.308;12.178;2022-09-30T11:07:14;14.00;99.90
8736;DHT22;4404;49.308;12.178;2022-09-30T11:13:34;14.10;99.90
8736;DHT22;4404;49.308;12.178;2022-09-30T11:19:48;14.20;99.90
8736;DHT22;4404;49.308;12.178;2022-09-30T11:26:00;14.40;99.90
8736;DHT22;4404;49.308;12.178;2022-09-30T11:32:15;14.40;99.90
8736;DHT22;4404;49.308;12.178;2022-09-30T11:38:44;14.50;99.90
8736;DHT22;4404;49.308;12.178;2022-09-30T11:44:58;14.70;99.90
8736;DHT22;4404;49.308;12.178;2022-09-30T11:51:17;14.80;99.90
8736;DHT22;4404;49.308;12.178;2022-09-30T11:57:29;15.00;99.90
8736;DHT22;4404;49.308;12.178;2022-09-30T12:03:37;15.00;99.90
8736;DHT22;4404;49.308;12.178;2022-09-30T12:09:45;15.30;99.90
8736;DHT22;4404;49.308;12.178;2022-09-30T12:15:51;15.60;99.90
8736;DHT22;4404;49.308;12.178;2022-09-30T12:21:59;15.80;99.90
8736;DHT22;4404;49.308;12.178;2022-09-30T12:28:13;16.00;99.90
8736;DHT22;4404;49.308;12.178;2022-09-30T12:34:49;16.20;99.90
8736;DHT22;4404;49.308;12.178;2022-09-30T12:41:15;16.20;99.90
8736;DHT22;4404;49.308;12.178;2022-09-30T12:47:34;16.00;99.90
8736;DHT22;4404;49.308;12.178;2022-09-30T12:53:50;16.00;99.00
8736;DHT22;4404;49.308;12.178;2022-09-30T13:00:03;16.00;99.90
8736;DHT22;4404;49.308;12.178;2022-09-30T13:06:08;16.30;99.90
8736;DHT22;4404;49.308;12.178;2022-09-30T13:12:25;16.50;99.40
8736;DHT22;4404;49.308;12.178;2022-09-30T13:18:59;16.50;99.90
8736;DHT22;4404;49.308;12.178;2022-09-30T13:25:12;16.50;99.20
8736;DHT22;4404;49.308;12.178;2022-09-30T13:31:21;16.50;99.10
8736;DHT22;4404;49.308;12.178;2022-09-30T13:37:37;16.50;98.50
8736;DHT22;4404;49.308;12.178;2022-09-30T13:43:45;16.40;97.70
8736;DHT22;4404;49.308;12.178;2022-09-30T13:49:58;16.20;98.40
8736;DHT22;4404;49.308;12.178;2022-09-30T13:56:08;16.20;98.30
8736;DHT22;4404;49.308;12.178;2022-09-30T14:02:47;16.20;98.50
8736;DHT22;4404;49.308;12.178;2022-09-30T14:09:15;16.30;99.10
8736;DHT22;4404;49.308;12.178;2022-09-30T14:15:39;16.30;99.10
8736;DHT22;4404;49.308;12.178;2022-09-30T14:22:06;16.30;97.90
8736;DHT22;4404;49.308;12.178;2022-09-30T14:28:21;16.50;97.40
8736;DHT22;4404;49.308;12.178;2022-09-30T14:34:29;16.50;97.10
8736;DHT22;4404;49.308;12.178;2022-09-30T14:40:35;16.60;97.20
8736;DHT22;4404;49.308;12.178;2022-09-30T14:46:51;16.60;96.90
8736;DHT22;4404;49.308;12.178;2022-09-30T14:53:24;16.50;96.00
8736;DHT22;4404;49.308;12.178;2022-09-30T14:59:30;16.40;95.30
8736;DHT22;4404;49.308;12.178;2022-09-30T15:05:36;16.30;95.70
8736;DHT22;4404;49.308;12.178;2022-09-30T15:11:39;16.20;95.80
8736;DHT22;4404;49.308;12.178;2022-09-30T15:17:49;16.20;95.80
8736;DHT22;4404;49.308;12.178;2022-09-30T15:38:44;15.80;96.20
8736;DHT22;4404;49.308;12.178;2022-09-30T15:45:29;15.70;96.60
8736;DHT22;4404;49.308;12.178;2022-09-30T15:52:32;15.60;98.00
8736;DHT22;4404;49.308;12.178;2022-09-30T16:06:21;15.50;98.20
8736;DHT22;4404;49.308;12.178;2022-09-30T16:12:39;15.40;97.90
8736;DHT22;4404;49.308;12.178;2022-09-30T16:18:56;15.50;98.80
8736;DHT22;4404;49.308;12.178;2022-09-30T16:25:23;15.50;99.90
8736;DHT22;4404;49.308;12.178;2022-09-30T16:31:38;15.40;99.90
8736;DHT22;4404;49.308;12.178;2022-09-30T16:38:14;15.40;99.90
8736;DHT22;4404;49.308;12.178;2022-09-30T16:44:36;15.00;99.90
8736;DHT22;4404;49.308;12.178;2022-09-30T16:50:53;14.60;99.90
8736;DHT22;4404;49.308;12.178;2022-09-30T16:57:11;14.30;99.90
8736;DHT22;4404;49.308;12.178;2022-09-30T17:03:17;14.10;99.90
8736;DHT22;4404;49.308;12.178;2022-09-30T17:09:20;13.90;99.90
8736;DHT22;4404;49.308;12.178;2022-09-30T17:15:22;13.80;99.90
8736;DHT22;4404;49.308;12.178;2022-09-30T17:21:26;13.70;99.90
8736;DHT22;4404;49.308;12.178;2022-09-30T17:27:29;13.70;99.90
8736;DHT22;4404;49.308;12.178;2022-09-30T17:33:32;13.60;99.90
8736;DHT22;4404;49.308;12.178;2022-09-30T17:39:36;13.50;99.90
8736;DHT22;4404;49.308;12.178;2022-09-30T17:45:40;13.30;99.90
8736;DHT22;4404;49.308;12.178;2022-09-30T17:51:43;13.20;99.90
8736;DHT22;4404;49.308;12.178;2022-09-30T18:05:12;12.90;99.90
8736;DHT22;4404;49.308;12.178;2022-09-30T18:11:18;12.80;99.90
8736;DHT22;4404;49.308;12.178;2022-09-30T18:17:22;12.70;99.90
8736;DHT22;4404;49.308;12.178;2022-09-30T18:23:24;12.60;99.90
8736;DHT22;4404;49.308;12.178;2022-09-30T18:29:27;12.60;99.90
8736;DHT22;4404;49.308;12.178;2022-09-30T18:35:30;12.50;99.90
8736;DHT22;4404;49.308;12.178;2022-09-30T18:41:32;12.50;99.90
8736;DHT22;4404;49.308;12.178;2022-09-30T18:47:35;12.30;99.90
8736;DHT22;4404;49.308;12.178;2022-09-30T18:53:38;12.30;99.90
8736;DHT22;4404;49.308;12.178;2022-09-30T18:59:41;12.20;99.90
8736;DHT22;4404;49.308;12.178;2022-09-30T19:05:43;12.10;99.90
8736;DHT22;4404;49.308;12.178;2022-09-30T19:11:47;12.10;99.90
8736;DHT22;4404;49.308;12.178;2022-09-30T19:17:51;12.00;99.90
8736;DHT22;4404;49.308;12.178;2022-09-30T19:23:53;11.90;99.90
8736;DHT22;4404;49.308;12.178;2022-09-30T19:29:59;11.90;99.90
8736;DHT22;4404;49.308;12.178;2022-09-30T19:36:02;11.80;99.90
8736;DHT22;4404;49.308;12.178;2022-09-30T19:42:05;11.80;99.90
8736;DHT22;4404;49.308;12.178;2022-09-30T19:48:08;11.70;99.90
8736;DHT22;4404;49.308;12.178;2022-09-30T19:54:11;11.60;99.90
8736;DHT22;4404;49.308;12.178;2022-09-30T20:00:13;11.60;99.90
8736;DHT22;4404;49.308;12.178;2022-09-30T20:06:16;11.50;99.90
8736;DHT22;4404;49.308;12.178;2022-09-30T20:12:19;11.40;99.90
8736;DHT22;4404;49.308;12.178;2022-09-30T20:18:21;11.30;99.90
8736;DHT22;4404;49.308;12.178;2022-09-30T20:24:25;11.30;99.90
8736;DHT22;4404;49.308;12.178;2022-09-30T20:30:27;11.20;99.90
8736;DHT22;4404;49.308;12.178;2022-09-30T20:36:30;11.10;99.90
8736;DHT22;4404;49.308;12.178;2022-09-30T20:42:35;11.10;99.90
8736;DHT22;4404;49.308;12.178;2022-09-30T20:48:39;11.00;99.90
8736;DHT22;4404;49.308;12.178;2022-09-30T20:54:41;11.00;99.90
8736;DHT22;4404;49.308;12.178;2022-09-30T21:00:45;11.00;99.90
8736;DHT22;4404;49.308;12.178;2022-09-30T21:06:47;10.90;99.90
8736;DHT22;4404;49.308;12.178;2022-09-30T21:12:49;10.90;99.90
8736;DHT22;4404;49.308;12.178;2022-09-30T21:18:53;10.30;99.90
8736;DHT22;4404;49.308;12.178;2022-09-30T21:24:55;10.90;99.90
8736;DHT22;4404;49.308;12.178;2022-09-30T21:30:58;10.80;99.90
8736;DHT22;4404;49.308;12.178;2022-09-30T21:37:01;10.80;99.90
8736;DHT22;4404;49.308;12.178;2022-09-30T21:43:03;10.80;99.90
8736;DHT22;4404;49.308;12.178;2022-09-30T21:49:12;10.70;99.90
8736;DHT22;4404;49.308;12.178;2022-09-30T21:55:17;10.70;99.90
8736;DHT22;4404;49.308;12.178;2022-09-30T22:01:19;10.70;99.90
8736;DHT22;4404;49.308;12.178;2022-09-30T22:07:21;10.60;99.90
8736;DHT22;4404;49.308;12.178;2022-09-30T22:13:26;10.60;99.90
8736;DHT22;4404;49.308;12.178;2022-09-30T22:19:28;10.50;99.90
8736;DHT22;4404;49.308;12.178;2022-09-30T22:25:30;10.40;99.90
8736;DHT22;4404;49.308;12.178;2022-09-30T22:31:34;10.40;99.90
8736;DHT22;4404;49.308;12.178;2022-09-30T22:37:36;10.40;99.90
8736;DHT22;4404;49.308;12.178;2022-09-30T22:44:01;10.30;99.90
8736;DHT22;4404;49.308;12.178;2022-09-30T22:50:05;10.30;99.90
8736;DHT22;4404;49.308;12.178;2022-09-30T22:56:08;10.30;99.90
8736;DHT22;4404;49.308;12.178;2022-09-30T23:02:12;10.30;99.90
8736;DHT22;4404;49.308;12.178;2022-09-30T23:08:16;10.40;99.90
8736;DHT22;4404;49.308;12.178;2022-09-30T23:14:19;10.40;99.90
8736;DHT22;4404;49.308;12.178;2022-09-30T23:20:22;10.40;99.90
8736;DHT22;4404;49.308;12.178;2022-09-30T23:26:27;10.30;99.90
8736;DHT22;4404;49.308;12.178;2022-09-30T23:32:46;10.30;99.90
8736;DHT22;4404;49.308;12.178;2022-09-30T23:38:48;10.10;99.90
8736;DHT22;4404;49.308;12.178;2022-09-30T23:44:52;9.90;99.90
8736;DHT22;4404;49.308;12.178;2022-09-30T23:50:54;9.90;99.90
8736;DHT22;4404;49.308;12.178;2022-09-30T23:56:57;9.80;99.90
